sensor_id;sensor_type;location;lat;lon;timestamp;P1;durP1;ratioP1;P2;durP2;ratioP2
39400;SDS011;54391;50.000;7.360;2023-11-22T00:01:19;5.57;;;3.28;;
39400;SDS011;54391;50.000;7.360;2023-11-22T00:03:47;5.78;;;3.20;;
39400;SDS011;54391;50.000;7.360;2023-11-22T00:06:15;4.88;;;2.95;;
39400;SDS011;54391;50.000;7.360;2023-11-22T00:08:45;4.80;;;2.72;;
39400;SDS011;54391;50.000;7.360;2023-11-22T00:11:13;4.70;;;2.60;;
39400;SDS011;54391;50.000;7.360;2023-11-22T00:13:40;4.72;;;2.78;;
39400;SDS011;54391;50.000;7.360;2023-11-22T00:16:09;5.13;;;2.85;;
39400;SDS011;54391;50.000;7.360;2023-11-22T00:18:37;5.15;;;3.00;;
39400;SDS011;54391;50.000;7.360;2023-11-22T00:21:04;6.78;;;3.40;;
39400;SDS011;54391;50.000;7.360;2023-11-22T00:23:32;5.85;;;3.10;;
39400;SDS011;54391;50.000;7.360;2023-11-22T00:25:59;6.22;;;3.25;;
39400;SDS011;54391;50.000;7.360;2023-11-22T00:28:27;7.18;;;3.55;;
39400;SDS011;54391;50.000;7.360;2023-11-22T00:30:55;9.52;;;4.63;;
39400;SDS011;54391;50.000;7.360;2023-11-22T00:33:25;7.90;;;4.75;;
39400;SDS011;54391;50.000;7.360;2023-11-22T00:35:52;9.20;;;5.00;;
39400;SDS011;54391;50.000;7.360;2023-11-22T00:38:22;9.68;;;4.90;;
39400;SDS011;54391;50.000;7.360;2023-11-22T00:40:49;7.65;;;4.30;;
39400;SDS011;54391;50.000;7.360;2023-11-22T00:43:17;7.15;;;4.35;;
39400;SDS011;54391;50.000;7.360;2023-11-22T00:45:44;6.82;;;3.45;;
39400;SDS011;54391;50.000;7.360;2023-11-22T00:48:12;4.75;;;3.05;;
39400;SDS011;54391;50.000;7.360;2023-11-22T00:50:41;9.02;;;4.03;;
39400;SDS011;54391;50.000;7.360;2023-11-22T00:53:08;6.72;;;4.15;;
39400;SDS011;54391;50.000;7.360;2023-11-22T00:55:36;5.32;;;3.50;;
39400;SDS011;54391;50.000;7.360;2023-11-22T00:58:03;5.50;;;3.22;;
39400;SDS011;54391;50.000;7.360;2023-11-22T01:00:30;6.80;;;4.15;;
39400;SDS011;54391;50.000;7.360;2023-11-22T01:02:59;9.38;;;5.10;;
39400;SDS011;54391;50.000;7.360;2023-11-22T01:05:26;11.00;;;5.35;;
39400;SDS011;54391;50.000;7.360;2023-11-22T01:07:56;10.80;;;5.10;;
39400;SDS011;54391;50.000;7.360;2023-11-22T01:10:23;8.88;;;4.53;;
39400;SDS011;54391;50.000;7.360;2023-11-22T01:12:51;8.00;;;3.60;;
39400;SDS011;54391;50.000;7.360;2023-11-22T01:15:19;9.10;;;4.57;;
39400;SDS011;54391;50.000;7.360;2023-11-22T01:17:46;10.75;;;5.13;;
39400;SDS011;54391;50.000;7.360;2023-11-22T01:20:14;10.05;;;4.70;;
39400;SDS011;54391;50.000;7.360;2023-11-22T01:22:42;6.50;;;3.78;;
39400;SDS011;54391;50.000;7.360;2023-11-22T01:25:10;6.25;;;3.60;;
39400;SDS011;54391;50.000;7.360;2023-11-22T01:27:38;6.10;;;3.85;;
39400;SDS011;54391;50.000;7.360;2023-11-22T01:30:06;6.43;;;3.10;;
39400;SDS011;54391;50.000;7.360;2023-11-22T01:32:33;5.65;;;3.70;;
39400;SDS011;54391;50.000;7.360;2023-11-22T01:35:01;5.45;;;3.28;;
39400;SDS011;54391;50.000;7.360;2023-11-22T01:37:31;6.32;;;3.45;;
39400;SDS011;54391;50.000;7.360;2023-11-22T01:39:58;5.18;;;2.90;;
39400;SDS011;54391;50.000;7.360;2023-11-22T01:42:29;6.05;;;3.30;;
39400;SDS011;54391;50.000;7.360;2023-11-22T01:44:56;6.18;;;3.15;;
39400;SDS011;54391;50.000;7.360;2023-11-22T01:47:24;7.93;;;3.75;;
39400;SDS011;54391;50.000;7.360;2023-11-22T01:49:52;5.85;;;2.95;;
39400;SDS011;54391;50.000;7.360;2023-11-22T01:52:20;7.78;;;3.35;;
39400;SDS011;54391;50.000;7.360;2023-11-22T01:54:48;7.78;;;3.58;;
39400;SDS011;54391;50.000;7.360;2023-11-22T01:57:16;5.43;;;3.13;;
39400;SDS011;54391;50.000;7.360;2023-11-22T01:59:45;5.50;;;3.13;;
39400;SDS011;54391;50.000;7.360;2023-11-22T02:02:13;6.68;;;3.47;;
39400;SDS011;54391;50.000;7.360;2023-11-22T02:04:41;5.82;;;3.30;;
39400;SDS011;54391;50.000;7.360;2023-11-22T02:07:09;5.85;;;3.40;;
39400;SDS011;54391;50.000;7.360;2023-11-22T02:09:36;6.22;;;3.17;;
39400;SDS011;54391;50.000;7.360;2023-11-22T02:12:04;6.38;;;3.58;;
39400;SDS011;54391;50.000;7.360;2023-11-22T02:14:32;5.30;;;3.13;;
39400;SDS011;54391;50.000;7.360;2023-11-22T02:17:01;7.03;;;3.60;;
39400;SDS011;54391;50.000;7.360;2023-11-22T02:19:28;7.00;;;3.60;;
39400;SDS011;54391;50.000;7.360;2023-11-22T02:21:56;6.35;;;3.58;;
39400;SDS011;54391;50.000;7.360;2023-11-22T02:24:26;6.00;;;3.15;;
39400;SDS011;54391;50.000;7.360;2023-11-22T02:26:53;5.97;;;3.25;;
39400;SDS011;54391;50.000;7.360;2023-11-22T02:29:21;5.63;;;3.30;;
39400;SDS011;54391;50.000;7.360;2023-11-22T02:31:48;5.45;;;2.97;;
39400;SDS011;54391;50.000;7.360;2023-11-22T02:34:16;5.50;;;3.05;;
39400;SDS011;54391;50.000;7.360;2023-11-22T02:36:44;5.07;;;3.42;;
39400;SDS011;54391;50.000;7.360;2023-11-22T02:39:12;7.40;;;3.58;;
39400;SDS011;54391;50.000;7.360;2023-11-22T02:41:41;6.18;;;3.00;;
39400;SDS011;54391;50.000;7.360;2023-11-22T02:44:10;5.72;;;3.30;;
39400;SDS011;54391;50.000;7.360;2023-11-22T02:46:42;5.75;;;3.30;;
39400;SDS011;54391;50.000;7.360;2023-11-22T02:49:09;5.97;;;3.40;;
39400;SDS011;54391;50.000;7.360;2023-11-22T02:51:37;7.93;;;3.50;;
39400;SDS011;54391;50.000;7.360;2023-11-22T02:54:05;6.07;;;3.38;;
39400;SDS011;54391;50.000;7.360;2023-11-22T02:56:33;7.80;;;3.95;;
39400;SDS011;54391;50.000;7.360;2023-11-22T02:59:02;6.60;;;3.38;;
39400;SDS011;54391;50.000;7.360;2023-11-22T03:01:29;8.10;;;4.22;;
39400;SDS011;54391;50.000;7.360;2023-11-22T03:03:57;5.18;;;3.38;;
39400;SDS011;54391;50.000;7.360;2023-11-22T03:06:25;5.55;;;2.83;;
39400;SDS011;54391;50.000;7.360;2023-11-22T03:08:53;6.43;;;4.03;;
39400;SDS011;54391;50.000;7.360;2023-11-22T03:11:20;6.97;;;3.55;;
39400;SDS011;54391;50.000;7.360;2023-11-22T03:13:48;6.60;;;3.80;;
39400;SDS011;54391;50.000;7.360;2023-11-22T03:16:17;7.32;;;3.88;;
39400;SDS011;54391;50.000;7.360;2023-11-22T03:18:44;6.57;;;3.42;;
39400;SDS011;54391;50.000;7.360;2023-11-22T03:21:12;5.95;;;3.22;;
39400;SDS011;54391;50.000;7.360;2023-11-22T03:23:39;6.57;;;3.55;;
39400;SDS011;54391;50.000;7.360;2023-11-22T03:26:07;6.47;;;3.58;;
39400;SDS011;54391;50.000;7.360;2023-11-22T03:28:34;6.75;;;3.35;;
39400;SDS011;54391;50.000;7.360;2023-11-22T03:31:05;5.60;;;3.00;;
39400;SDS011;54391;50.000;7.360;2023-11-22T03:33:35;4.93;;;3.30;;
39400;SDS011;54391;50.000;7.360;2023-11-22T03:36:03;6.63;;;4.05;;
39400;SDS011;54391;50.000;7.360;2023-11-22T03:38:31;6.32;;;3.53;;
39400;SDS011;54391;50.000;7.360;2023-11-22T03:40:59;5.35;;;3.17;;
39400;SDS011;54391;50.000;7.360;2023-11-22T03:43:26;5.45;;;3.30;;
39400;SDS011;54391;50.000;7.360;2023-11-22T03:45:54;5.20;;;3.28;;
39400;SDS011;54391;50.000;7.360;2023-11-22T03:48:21;6.05;;;3.53;;
39400;SDS011;54391;50.000;7.360;2023-11-22T03:50:52;8.38;;;3.38;;
39400;SDS011;54391;50.000;7.360;2023-11-22T03:53:20;7.78;;;3.47;;
39400;SDS011;54391;50.000;7.360;2023-11-22T03:55:48;7.07;;;3.13;;
39400;SDS011;54391;50.000;7.360;2023-11-22T03:58:16;5.55;;;3.22;;
39400;SDS011;54391;50.000;7.360;2023-11-22T04:00:44;7.25;;;3.88;;
39400;SDS011;54391;50.000;7.360;2023-11-22T04:03:13;5.85;;;3.28;;
39400;SDS011;54391;50.000;7.360;2023-11-22T04:05:41;5.60;;;3.35;;
39400;SDS011;54391;50.000;7.360;2023-11-22T04:08:10;6.32;;;3.33;;
39400;SDS011;54391;50.000;7.360;2023-11-22T04:10:37;5.97;;;3.55;;
39400;SDS011;54391;50.000;7.360;2023-11-22T04:13:05;7.97;;;4.50;;
39400;SDS011;54391;50.000;7.360;2023-11-22T04:15:32;7.07;;;3.88;;
39400;SDS011;54391;50.000;7.360;2023-11-22T04:18:00;9.02;;;4.90;;
39400;SDS011;54391;50.000;7.360;2023-11-22T04:20:27;6.63;;;4.20;;
39400;SDS011;54391;50.000;7.360;2023-11-22T04:22:55;8.10;;;5.03;;
39400;SDS011;54391;50.000;7.360;2023-11-22T04:25:24;7.25;;;4.22;;
39400;SDS011;54391;50.000;7.360;2023-11-22T04:27:52;8.05;;;4.30;;
39400;SDS011;54391;50.000;7.360;2023-11-22T04:30:19;7.70;;;4.25;;
39400;SDS011;54391;50.000;7.360;2023-11-22T04:32:47;8.57;;;3.78;;
39400;SDS011;54391;50.000;7.360;2023-11-22T04:35:15;8.82;;;4.07;;
39400;SDS011;54391;50.000;7.360;2023-11-22T04:37:43;8.70;;;4.10;;
39400;SDS011;54391;50.000;7.360;2023-11-22T04:40:12;7.10;;;3.75;;
39400;SDS011;54391;50.000;7.360;2023-11-22T04:42:42;6.70;;;3.88;;
39400;SDS011;54391;50.000;7.360;2023-11-22T04:45:09;8.13;;;4.43;;
39400;SDS011;54391;50.000;7.360;2023-11-22T04:47:38;8.70;;;4.75;;
39400;SDS011;54391;50.000;7.360;2023-11-22T04:50:05;7.07;;;4.40;;
39400;SDS011;54391;50.000;7.360;2023-11-22T04:52:34;7.95;;;4.45;;
39400;SDS011;54391;50.000;7.360;2023-11-22T04:55:01;7.38;;;4.07;;
39400;SDS011;54391;50.000;7.360;2023-11-22T04:57:29;8.15;;;4.47;;
39400;SDS011;54391;50.000;7.360;2023-11-22T04:59:59;7.82;;;4.22;;
39400;SDS011;54391;50.000;7.360;2023-11-22T05:02:28;7.57;;;4.45;;
39400;SDS011;54391;50.000;7.360;2023-11-22T05:04:56;7.25;;;3.63;;
39400;SDS011;54391;50.000;7.360;2023-11-22T05:07:23;6.63;;;3.47;;
39400;SDS011;54391;50.000;7.360;2023-11-22T05:09:51;7.70;;;4.32;;
39400;SDS011;54391;50.000;7.360;2023-11-22T05:12:19;9.00;;;4.53;;
39400;SDS011;54391;50.000;7.360;2023-11-22T05:14:47;9.32;;;4.80;;
39400;SDS011;54391;50.000;7.360;2023-11-22T05:17:16;11.00;;;5.60;;
39400;SDS011;54391;50.000;7.360;2023-11-22T05:19:43;9.00;;;4.55;;
39400;SDS011;54391;50.000;7.360;2023-11-22T05:22:11;8.15;;;4.97;;
39400;SDS011;54391;50.000;7.360;2023-11-22T05:24:38;12.68;;;5.53;;
39400;SDS011;54391;50.000;7.360;2023-11-22T05:27:06;7.57;;;4.85;;
39400;SDS011;54391;50.000;7.360;2023-11-22T05:29:34;6.13;;;3.90;;
39400;SDS011;54391;50.000;7.360;2023-11-22T05:32:02;6.75;;;3.95;;
39400;SDS011;54391;50.000;7.360;2023-11-22T05:34:34;7.15;;;4.38;;
39400;SDS011;54391;50.000;7.360;2023-11-22T05:37:01;6.38;;;3.88;;
39400;SDS011;54391;50.000;7.360;2023-11-22T05:39:31;6.18;;;3.90;;
39400;SDS011;54391;50.000;7.360;2023-11-22T05:41:58;7.05;;;4.07;;
39400;SDS011;54391;50.000;7.360;2023-11-22T05:44:26;5.10;;;3.20;;
39400;SDS011;54391;50.000;7.360;2023-11-22T05:46:53;5.57;;;3.63;;
39400;SDS011;54391;50.000;7.360;2023-11-22T05:49:21;5.55;;;3.17;;
39400;SDS011;54391;50.000;7.360;2023-11-22T05:51:50;5.80;;;3.20;;
39400;SDS011;54391;50.000;7.360;2023-11-22T05:54:17;4.95;;;3.33;;
39400;SDS011;54391;50.000;7.360;2023-11-22T05:56:45;5.28;;;2.85;;
39400;SDS011;54391;50.000;7.360;2023-11-22T05:59:12;6.35;;;2.70;;
39400;SDS011;54391;50.000;7.360;2023-11-22T06:01:39;5.72;;;2.97;;
39400;SDS011;54391;50.000;7.360;2023-11-22T06:04:07;7.32;;;4.15;;
39400;SDS011;54391;50.000;7.360;2023-11-22T06:06:35;14.90;;;6.07;;
39400;SDS011;54391;50.000;7.360;2023-11-22T06:09:04;6.35;;;3.97;;
39400;SDS011;54391;50.000;7.360;2023-11-22T06:11:32;7.93;;;4.57;;
39400;SDS011;54391;50.000;7.360;2023-11-22T06:14:00;6.07;;;3.75;;
39400;SDS011;54391;50.000;7.360;2023-11-22T06:16:28;4.90;;;3.20;;
39400;SDS011;54391;50.000;7.360;2023-11-22T06:18:55;6.40;;;3.75;;
39400;SDS011;54391;50.000;7.360;2023-11-22T06:21:23;6.85;;;3.83;;
39400;SDS011;54391;50.000;7.360;2023-11-22T06:23:52;7.35;;;3.35;;
39400;SDS011;54391;50.000;7.360;2023-11-22T06:26:22;6.15;;;2.60;;
39400;SDS011;54391;50.000;7.360;2023-11-22T06:28:49;5.13;;;2.90;;
39400;SDS011;54391;50.000;7.360;2023-11-22T06:31:17;4.50;;;2.70;;
39400;SDS011;54391;50.000;7.360;2023-11-22T06:33:44;4.68;;;2.67;;
39400;SDS011;54391;50.000;7.360;2023-11-22T06:36:12;5.10;;;2.53;;
39400;SDS011;54391;50.000;7.360;2023-11-22T06:38:40;5.32;;;2.20;;
39400;SDS011;54391;50.000;7.360;2023-11-22T06:41:08;6.03;;;2.80;;
39400;SDS011;54391;50.000;7.360;2023-11-22T06:43:37;4.50;;;2.53;;
39400;SDS011;54391;50.000;7.360;2023-11-22T06:46:04;3.80;;;2.58;;
39400;SDS011;54391;50.000;7.360;2023-11-22T06:48:32;4.47;;;2.70;;
39400;SDS011;54391;50.000;7.360;2023-11-22T06:50:59;4.40;;;2.40;;
39400;SDS011;54391;50.000;7.360;2023-11-22T06:53:27;5.53;;;2.10;;
39400;SDS011;54391;50.000;7.360;2023-11-22T06:55:54;4.88;;;2.72;;
39400;SDS011;54391;50.000;7.360;2023-11-22T06:58:22;4.63;;;2.20;;
39400;SDS011;54391;50.000;7.360;2023-11-22T07:00:51;4.13;;;1.80;;
39400;SDS011;54391;50.000;7.360;2023-11-22T07:03:20;5.63;;;2.58;;
39400;SDS011;54391;50.000;7.360;2023-11-22T07:05:48;3.60;;;2.22;;
39400;SDS011;54391;50.000;7.360;2023-11-22T07:08:16;8.75;;;2.92;;
39400;SDS011;54391;50.000;7.360;2023-11-22T07:10:44;3.60;;;2.10;;
39400;SDS011;54391;50.000;7.360;2023-11-22T07:13:11;5.10;;;1.73;;
39400;SDS011;54391;50.000;7.360;2023-11-22T07:15:39;3.75;;;1.75;;
39400;SDS011;54391;50.000;7.360;2023-11-22T07:18:08;3.67;;;1.60;;
39400;SDS011;54391;50.000;7.360;2023-11-22T07:20:35;4.93;;;1.40;;
39400;SDS011;54391;50.000;7.360;2023-11-22T07:23:04;2.47;;;1.23;;
39400;SDS011;54391;50.000;7.360;2023-11-22T07:25:32;2.78;;;1.65;;
39400;SDS011;54391;50.000;7.360;2023-11-22T07:27:59;2.78;;;1.20;;
39400;SDS011;54391;50.000;7.360;2023-11-22T07:30:27;5.45;;;1.50;;
39400;SDS011;54391;50.000;7.360;2023-11-22T07:32:56;6.97;;;1.35;;
39400;SDS011;54391;50.000;7.360;2023-11-22T07:35:26;1.77;;;1.05;;
39400;SDS011;54391;50.000;7.360;2023-11-22T07:37:53;1.80;;;1.00;;
39400;SDS011;54391;50.000;7.360;2023-11-22T07:40:21;1.83;;;1.05;;
39400;SDS011;54391;50.000;7.360;2023-11-22T07:42:48;1.83;;;1.10;;
39400;SDS011;54391;50.000;7.360;2023-11-22T07:45:16;1.70;;;1.10;;
39400;SDS011;54391;50.000;7.360;2023-11-22T07:47:44;1.67;;;1.30;;
39400;SDS011;54391;50.000;7.360;2023-11-22T07:50:12;3.20;;;1.25;;
39400;SDS011;54391;50.000;7.360;2023-11-22T07:52:41;2.72;;;1.15;;
39400;SDS011;54391;50.000;7.360;2023-11-22T07:55:09;1.10;;;0.70;;
39400;SDS011;54391;50.000;7.360;2023-11-22T07:57:37;2.47;;;1.00;;
39400;SDS011;54391;50.000;7.360;2023-11-22T08:00:06;2.50;;;1.17;;
39400;SDS011;54391;50.000;7.360;2023-11-22T08:02:39;2.92;;;1.20;;
39400;SDS011;54391;50.000;7.360;2023-11-22T08:05:08;3.28;;;0.80;;
39400;SDS011;54391;50.000;7.360;2023-11-22T08:07:38;2.67;;;0.90;;
39400;SDS011;54391;50.000;7.360;2023-11-22T08:10:08;1.05;;;0.82;;
39400;SDS011;54391;50.000;7.360;2023-11-22T08:12:42;1.85;;;1.17;;
39400;SDS011;54391;50.000;7.360;2023-11-22T08:15:11;1.20;;;0.90;;
39400;SDS011;54391;50.000;7.360;2023-11-22T08:17:39;2.65;;;1.17;;
39400;SDS011;54391;50.000;7.360;2023-11-22T08:20:07;2.53;;;1.40;;
39400;SDS011;54391;50.000;7.360;2023-11-22T08:22:37;1.75;;;1.10;;
39400;SDS011;54391;50.000;7.360;2023-11-22T08:25:05;2.00;;;1.20;;
39400;SDS011;54391;50.000;7.360;2023-11-22T08:27:35;2.17;;;1.15;;
39400;SDS011;54391;50.000;7.360;2023-11-22T08:30:02;3.63;;;1.60;;
39400;SDS011;54391;50.000;7.360;2023-11-22T08:32:30;4.53;;;2.17;;
39400;SDS011;54391;50.000;7.360;2023-11-22T08:34:58;3.65;;;2.30;;
39400;SDS011;54391;50.000;7.360;2023-11-22T08:37:26;3.80;;;2.38;;
39400;SDS011;54391;50.000;7.360;2023-11-22T08:39:54;2.05;;;1.38;;
39400;SDS011;54391;50.000;7.360;2023-11-22T08:42:21;4.28;;;1.85;;
39400;SDS011;54391;50.000;7.360;2023-11-22T08:44:50;2.15;;;1.65;;
39400;SDS011;54391;50.000;7.360;2023-11-22T08:47:18;2.08;;;1.25;;
39400;SDS011;54391;50.000;7.360;2023-11-22T08:49:45;1.88;;;1.10;;
39400;SDS011;54391;50.000;7.360;2023-11-22T08:52:13;3.28;;;1.52;;
39400;SDS011;54391;50.000;7.360;2023-11-22T08:54:41;2.00;;;1.25;;
39400;SDS011;54391;50.000;7.360;2023-11-22T08:57:08;4.18;;;1.40;;
39400;SDS011;54391;50.000;7.360;2023-11-22T08:59:36;2.42;;;1.20;;
39400;SDS011;54391;50.000;7.360;2023-11-22T09:02:05;2.35;;;1.23;;
39400;SDS011;54391;50.000;7.360;2023-11-22T09:04:35;4.90;;;2.70;;
39400;SDS011;54391;50.000;7.360;2023-11-22T09:07:03;3.30;;;1.67;;
39400;SDS011;54391;50.000;7.360;2023-11-22T09:09:31;3.35;;;1.58;;
39400;SDS011;54391;50.000;7.360;2023-11-22T09:12:00;4.53;;;1.80;;
39400;SDS011;54391;50.000;7.360;2023-11-22T09:14:27;3.53;;;1.70;;
39400;SDS011;54391;50.000;7.360;2023-11-22T09:16:55;2.25;;;1.25;;
39400;SDS011;54391;50.000;7.360;2023-11-22T09:19:24;2.58;;;1.60;;
39400;SDS011;54391;50.000;7.360;2023-11-22T09:21:51;5.25;;;2.33;;
39400;SDS011;54391;50.000;7.360;2023-11-22T09:24:19;8.75;;;3.35;;
39400;SDS011;54391;50.000;7.360;2023-11-22T09:26:46;2.22;;;1.40;;
39400;SDS011;54391;50.000;7.360;2023-11-22T09:29:14;2.47;;;1.20;;
39400;SDS011;54391;50.000;7.360;2023-11-22T09:31:41;2.13;;;1.20;;
39400;SDS011;54391;50.000;7.360;2023-11-22T09:34:11;2.40;;;1.20;;
39400;SDS011;54391;50.000;7.360;2023-11-22T09:36:40;2.53;;;1.20;;
39400;SDS011;54391;50.000;7.360;2023-11-22T09:39:08;3.00;;;1.90;;
39400;SDS011;54391;50.000;7.360;2023-11-22T09:41:35;2.95;;;2.20;;
39400;SDS011;54391;50.000;7.360;2023-11-22T09:44:04;5.20;;;2.38;;
39400;SDS011;54391;50.000;7.360;2023-11-22T09:46:34;3.20;;;2.13;;
39400;SDS011;54391;50.000;7.360;2023-11-22T09:49:02;3.88;;;1.58;;
39400;SDS011;54391;50.000;7.360;2023-11-22T09:51:33;3.13;;;1.67;;
39400;SDS011;54391;50.000;7.360;2023-11-22T09:54:06;3.95;;;2.15;;
39400;SDS011;54391;50.000;7.360;2023-11-22T09:56:37;3.67;;;1.90;;
39400;SDS011;54391;50.000;7.360;2023-11-22T09:59:04;3.08;;;1.98;;
39400;SDS011;54391;50.000;7.360;2023-11-22T10:01:33;4.03;;;2.08;;
39400;SDS011;54391;50.000;7.360;2023-11-22T10:04:02;4.82;;;2.53;;
39400;SDS011;54391;50.000;7.360;2023-11-22T10:06:30;6.25;;;3.22;;
39400;SDS011;54391;50.000;7.360;2023-11-22T10:08:59;6.97;;;3.45;;
39400;SDS011;54391;50.000;7.360;2023-11-22T10:11:29;5.00;;;2.67;;
39400;SDS011;54391;50.000;7.360;2023-11-22T10:13:57;4.18;;;2.60;;
39400;SDS011;54391;50.000;7.360;2023-11-22T10:16:25;5.65;;;3.38;;
39400;SDS011;54391;50.000;7.360;2023-11-22T10:18:52;4.97;;;2.47;;
39400;SDS011;54391;50.000;7.360;2023-11-22T10:21:20;2.75;;;1.65;;
39400;SDS011;54391;50.000;7.360;2023-11-22T10:23:49;11.80;;;5.63;;
39400;SDS011;54391;50.000;7.360;2023-11-22T10:26:18;6.30;;;3.05;;
39400;SDS011;54391;50.000;7.360;2023-11-22T10:28:47;6.18;;;2.80;;
39400;SDS011;54391;50.000;7.360;2023-11-22T10:31:18;5.28;;;2.22;;
39400;SDS011;54391;50.000;7.360;2023-11-22T10:33:46;6.15;;;3.80;;
39400;SDS011;54391;50.000;7.360;2023-11-22T10:36:14;3.95;;;2.13;;
39400;SDS011;54391;50.000;7.360;2023-11-22T10:38:45;4.45;;;1.70;;
39400;SDS011;54391;50.000;7.360;2023-11-22T10:41:13;10.98;;;4.57;;
39400;SDS011;54391;50.000;7.360;2023-11-22T10:43:41;3.45;;;1.50;;
39400;SDS011;54391;50.000;7.360;2023-11-22T10:46:11;5.25;;;2.60;;
39400;SDS011;54391;50.000;7.360;2023-11-22T10:48:39;7.72;;;2.97;;
39400;SDS011;54391;50.000;7.360;2023-11-22T10:51:07;6.45;;;3.25;;
39400;SDS011;54391;50.000;7.360;2023-11-22T10:53:40;6.53;;;2.22;;
39400;SDS011;54391;50.000;7.360;2023-11-22T10:56:11;5.15;;;2.05;;
39400;SDS011;54391;50.000;7.360;2023-11-22T10:58:42;3.60;;;2.03;;
39400;SDS011;54391;50.000;7.360;2023-11-22T11:01:14;5.07;;;2.00;;
39400;SDS011;54391;50.000;7.360;2023-11-22T11:03:45;4.68;;;2.17;;
39400;SDS011;54391;50.000;7.360;2023-11-22T11:06:16;5.05;;;2.08;;
39400;SDS011;54391;50.000;7.360;2023-11-22T11:08:46;3.95;;;1.92;;
39400;SDS011;54391;50.000;7.360;2023-11-22T11:11:15;2.35;;;1.45;;
39400;SDS011;54391;50.000;7.360;2023-11-22T11:13:44;5.75;;;2.38;;
39400;SDS011;54391;50.000;7.360;2023-11-22T11:16:13;3.20;;;1.60;;
39400;SDS011;54391;50.000;7.360;2023-11-22T11:18:41;4.20;;;1.80;;
39400;SDS011;54391;50.000;7.360;2023-11-22T11:21:09;3.20;;;1.33;;
39400;SDS011;54391;50.000;7.360;2023-11-22T11:23:38;2.95;;;1.27;;
39400;SDS011;54391;50.000;7.360;2023-11-22T11:26:14;4.80;;;2.50;;
39400;SDS011;54391;50.000;7.360;2023-11-22T11:28:43;3.40;;;1.73;;
39400;SDS011;54391;50.000;7.360;2023-11-22T11:31:11;4.65;;;2.08;;
39400;SDS011;54391;50.000;7.360;2023-11-22T11:36:24;3.88;;;1.77;;
39400;SDS011;54391;50.000;7.360;2023-11-22T11:38:52;3.28;;;1.92;;
39400;SDS011;54391;50.000;7.360;2023-11-22T11:41:23;5.10;;;2.05;;
39400;SDS011;54391;50.000;7.360;2023-11-22T11:43:53;3.55;;;2.10;;
39400;SDS011;54391;50.000;7.360;2023-11-22T11:46:21;3.67;;;1.92;;
39400;SDS011;54391;50.000;7.360;2023-11-22T11:48:49;2.63;;;1.70;;
39400;SDS011;54391;50.000;7.360;2023-11-22T11:51:17;6.85;;;1.80;;
39400;SDS011;54391;50.000;7.360;2023-11-22T11:53:46;1.92;;;1.20;;
39400;SDS011;54391;50.000;7.360;2023-11-22T11:56:14;3.47;;;1.70;;
39400;SDS011;54391;50.000;7.360;2023-11-22T11:58:42;3.00;;;1.50;;
39400;SDS011;54391;50.000;7.360;2023-11-22T12:01:11;5.20;;;2.70;;
39400;SDS011;54391;50.000;7.360;2023-11-22T12:03:38;5.07;;;2.13;;
39400;SDS011;54391;50.000;7.360;2023-11-22T12:06:06;4.22;;;2.50;;
39400;SDS011;54391;50.000;7.360;2023-11-22T12:08:34;3.58;;;2.17;;
39400;SDS011;54391;50.000;7.360;2023-11-22T12:11:03;2.38;;;1.77;;
39400;SDS011;54391;50.000;7.360;2023-11-22T12:13:33;3.78;;;1.60;;
39400;SDS011;54391;50.000;7.360;2023-11-22T12:16:04;2.85;;;1.42;;
39400;SDS011;54391;50.000;7.360;2023-11-22T12:18:39;6.15;;;3.03;;
39400;SDS011;54391;50.000;7.360;2023-11-22T12:21:06;5.15;;;2.13;;
39400;SDS011;54391;50.000;7.360;2023-11-22T12:23:36;2.63;;;1.50;;
39400;SDS011;54391;50.000;7.360;2023-11-22T12:26:09;3.30;;;1.90;;
39400;SDS011;54391;50.000;7.360;2023-11-22T12:28:37;2.38;;;1.48;;
39400;SDS011;54391;50.000;7.360;2023-11-22T12:31:06;4.55;;;1.90;;
39400;SDS011;54391;50.000;7.360;2023-11-22T12:33:35;5.90;;;2.65;;
39400;SDS011;54391;50.000;7.360;2023-11-22T12:36:03;3.75;;;2.40;;
39400;SDS011;54391;50.000;7.360;2023-11-22T12:38:34;4.82;;;2.35;;
39400;SDS011;54391;50.000;7.360;2023-11-22T12:41:02;7.53;;;3.20;;
39400;SDS011;54391;50.000;7.360;2023-11-22T12:43:33;7.97;;;3.67;;
39400;SDS011;54391;50.000;7.360;2023-11-22T12:46:00;14.10;;;5.63;;
39400;SDS011;54391;50.000;7.360;2023-11-22T12:48:28;7.28;;;2.78;;
39400;SDS011;54391;50.000;7.360;2023-11-22T12:50:58;5.47;;;1.90;;
39400;SDS011;54391;50.000;7.360;2023-11-22T12:53:25;3.60;;;1.92;;
39400;SDS011;54391;50.000;7.360;2023-11-22T12:55:53;9.27;;;4.57;;
39400;SDS011;54391;50.000;7.360;2023-11-22T12:58:22;6.13;;;3.78;;
39400;SDS011;54391;50.000;7.360;2023-11-22T13:00:51;6.05;;;3.38;;
39400;SDS011;54391;50.000;7.360;2023-11-22T13:03:23;5.68;;;3.15;;
39400;SDS011;54391;50.000;7.360;2023-11-22T13:05:51;6.70;;;3.10;;
39400;SDS011;54391;50.000;7.360;2023-11-22T13:08:18;3.95;;;2.20;;
39400;SDS011;54391;50.000;7.360;2023-11-22T13:10:47;3.35;;;1.75;;
39400;SDS011;54391;50.000;7.360;2023-11-22T13:13:18;2.67;;;1.02;;
39400;SDS011;54391;50.000;7.360;2023-11-22T13:15:46;2.10;;;1.40;;
39400;SDS011;54391;50.000;7.360;2023-11-22T13:18:15;4.13;;;1.23;;
39400;SDS011;54391;50.000;7.360;2023-11-22T13:20:43;2.00;;;1.00;;
39400;SDS011;54391;50.000;7.360;2023-11-22T13:23:11;2.50;;;1.33;;
39400;SDS011;54391;50.000;7.360;2023-11-22T13:25:39;2.20;;;1.05;;
39400;SDS011;54391;50.000;7.360;2023-11-22T13:28:07;2.22;;;0.88;;
39400;SDS011;54391;50.000;7.360;2023-11-22T13:30:35;2.75;;;1.05;;
39400;SDS011;54391;50.000;7.360;2023-11-22T13:33:02;3.22;;;1.10;;
39400;SDS011;54391;50.000;7.360;2023-11-22T13:35:32;1.42;;;0.85;;
39400;SDS011;54391;50.000;7.360;2023-11-22T13:38:03;1.38;;;1.08;;
39400;SDS011;54391;50.000;7.360;2023-11-22T13:40:36;3.72;;;1.50;;
39400;SDS011;54391;50.000;7.360;2023-11-22T13:43:05;2.33;;;1.27;;
39400;SDS011;54391;50.000;7.360;2023-11-22T13:45:32;3.78;;;1.27;;
39400;SDS011;54391;50.000;7.360;2023-11-22T13:48:03;5.57;;;1.42;;
39400;SDS011;54391;50.000;7.360;2023-11-22T13:50:33;8.35;;;3.17;;
39400;SDS011;54391;50.000;7.360;2023-11-22T13:53:01;2.42;;;1.40;;
39400;SDS011;54391;50.000;7.360;2023-11-22T13:55:29;2.58;;;1.17;;
39400;SDS011;54391;50.000;7.360;2023-11-22T13:57:58;1.65;;;1.10;;
39400;SDS011;54391;50.000;7.360;2023-11-22T14:00:27;2.75;;;1.40;;
39400;SDS011;54391;50.000;7.360;2023-11-22T14:02:58;1.88;;;1.00;;
39400;SDS011;54391;50.000;7.360;2023-11-22T14:05:31;3.53;;;1.30;;
39400;SDS011;54391;50.000;7.360;2023-11-22T14:08:00;1.63;;;1.20;;
39400;SDS011;54391;50.000;7.360;2023-11-22T14:10:28;5.03;;;2.20;;
39400;SDS011;54391;50.000;7.360;2023-11-22T14:12:55;2.15;;;1.20;;
39400;SDS011;54391;50.000;7.360;2023-11-22T14:15:25;5.93;;;1.73;;
39400;SDS011;54391;50.000;7.360;2023-11-22T14:17:53;2.53;;;1.48;;
39400;SDS011;54391;50.000;7.360;2023-11-22T14:20:21;3.13;;;1.75;;
39400;SDS011;54391;50.000;7.360;2023-11-22T14:22:49;2.83;;;1.30;;
39400;SDS011;54391;50.000;7.360;2023-11-22T14:25:18;2.83;;;1.30;;
39400;SDS011;54391;50.000;7.360;2023-11-22T14:27:46;2.63;;;1.42;;
39400;SDS011;54391;50.000;7.360;2023-11-22T14:30:17;3.90;;;1.63;;
39400;SDS011;54391;50.000;7.360;2023-11-22T14:32:46;2.05;;;1.00;;
39400;SDS011;54391;50.000;7.360;2023-11-22T14:35:14;2.10;;;1.20;;
39400;SDS011;54391;50.000;7.360;2023-11-22T14:37:43;2.58;;;1.17;;
39400;SDS011;54391;50.000;7.360;2023-11-22T14:40:10;1.92;;;1.20;;
39400;SDS011;54391;50.000;7.360;2023-11-22T14:42:41;4.95;;;2.20;;
39400;SDS011;54391;50.000;7.360;2023-11-22T14:45:10;2.30;;;1.40;;
39400;SDS011;54391;50.000;7.360;2023-11-22T14:47:38;2.47;;;1.20;;
39400;SDS011;54391;50.000;7.360;2023-11-22T14:50:06;2.45;;;1.15;;
39400;SDS011;54391;50.000;7.360;2023-11-22T14:52:36;3.00;;;1.70;;
39400;SDS011;54391;50.000;7.360;2023-11-22T14:55:04;2.20;;;1.30;;
39400;SDS011;54391;50.000;7.360;2023-11-22T14:57:31;4.82;;;1.73;;